Time;durP1;ratioP1;P1;durP2;ratioP2;P2;SDS_P1;SDS_P2;PMS_P1;PMS_P2;Temp;Humidity;BMP_temperature;BMP_pressure;BME280_temperature;BME280_humidity;BME280_pressure;Samples;Min_cycle;Max_cycle;Signal;HPM_P1;HPM_P2
2023/10/27 00:01:34;;;;;;;1.95;1.33;;;;;;;;;;5019243;28;20207;-58
2023/10/27 00:04:02;;;;;;;1.15;1.10;;;;;;;;;;5019177;28;20225;-58
2023/10/27 00:06:32;;;;;;;1.40;1.25;;;;;;;;;;5019224;28;20566;-58
2023/10/27 00:09:00;;;;;;;1.02;1.00;;;;;;;;;;5019047;28;20217;-58
2023/10/27 00:11:28;;;;;;;1.20;1.10;;;;;;;;;;5018817;28;20230;-58
2023/10/27 00:13:55;;;;;;;1.30;1.20;;;;;;;;;;5019233;28;20221;-58
2023/10/27 00:16:23;;;;;;;1.30;1.20;;;;;;;;;;5019339;28;20472;-58
2023/10/27 00:18:50;;;;;;;1.33;1.23;;;;;;;;;;5018696;28;20618;-58
2023/10/27 00:21:19;;;;;;;1.20;1.10;;;;;;;;;;5018668;28;20209;-58
2023/10/27 00:23:46;;;;;;;1.20;1.10;;;;;;;;;;5018189;28;20221;-58
2023/10/27 00:26:14;;;;;;;1.10;1.10;;;;;;;;;;5019110;28;20217;-58
2023/10/27 00:28:41;;;;;;;1.17;1.08;;;;;;;;;;5018919;28;20210;-58
2023/10/27 00:31:10;;;;;;;1.30;1.20;;;;;;;;;;5018282;28;20230;-58
2023/10/27 00:33:37;;;;;;;1.52;1.25;;;;;;;;;;5019040;28;20217;-58
2023/10/27 00:36:05;;;;;;;1.30;1.20;;;;;;;;;;5018630;28;20305;-58
2023/10/27 00:38:34;;;;;;;1.05;0.95;;;;;;;;;;5018638;28;20213;-58
2023/10/27 00:41:01;;;;;;;1.95;1.20;;;;;;;;;;5018814;28;20209;-58
2023/10/27 00:43:28;;;;;;;1.15;1.05;;;;;;;;;;5018530;28;20206;-58
2023/10/27 00:45:56;;;;;;;1.13;1.02;;;;;;;;;;5018618;28;20221;-58
2023/10/27 00:48:23;;;;;;;1.50;1.40;;;;;;;;;;5018442;28;20205;-58
2023/10/27 00:50:51;;;;;;;1.02;0.93;;;;;;;;;;5018003;28;20240;-58
2023/10/27 00:53:20;;;;;;;1.10;1.00;;;;;;;;;;5018746;28;20206;-58
2023/10/27 00:55:50;;;;;;;1.05;1.05;;;;;;;;;;5018342;28;20273;-58
2023/10/27 00:58:18;;;;;;;1.20;1.02;;;;;;;;;;5018790;28;20206;-58
2023/10/27 01:00:46;;;;;;;1.58;1.10;;;;;;;;;;5018300;28;20213;-58
2023/10/27 01:03:14;;;;;;;1.20;1.10;;;;;;;;;;5018408;28;20237;-58
2023/10/27 01:05:41;;;;;;;1.38;1.10;;;;;;;;;;5018306;28;20202;-58
2023/10/27 01:08:08;;;;;;;1.50;1.40;;;;;;;;;;5018169;28;20219;-58
2023/10/27 01:10:36;;;;;;;1.30;1.20;;;;;;;;;;5018025;28;20217;-58
2023/10/27 01:13:05;;;;;;;1.13;1.02;;;;;;;;;;5018541;28;20469;-58
2023/10/27 01:15:32;;;;;;;1.35;1.20;;;;;;;;;;5018166;28;20213;-58
2023/10/27 01:18:00;;;;;;;1.20;1.10;;;;;;;;;;5018209;28;20206;-58
2023/10/27 01:20:27;;;;;;;1.23;1.13;;;;;;;;;;5017825;28;20206;-58
2023/10/27 01:22:56;;;;;;;1.95;1.00;;;;;;;;;;5018059;28;20513;-58
2023/10/27 01:25:24;;;;;;;1.20;1.10;;;;;;;;;;5017934;28;20249;-58
2023/10/27 01:27:51;;;;;;;1.08;1.00;;;;;;;;;;5017968;28;20213;-58
2023/10/27 01:30:18;;;;;;;1.20;1.10;;;;;;;;;;5017807;28;20566;-58
2023/10/27 01:32:46;;;;;;;1.15;1.08;;;;;;;;;;5017863;28;20230;-58
2023/10/27 01:35:14;;;;;;;2.22;1.10;;;;;;;;;;5017850;28;20594;-58
2023/10/27 01:37:42;;;;;;;0.95;0.95;;;;;;;;;;5017972;28;20217;-58
2023/10/27 01:40:12;;;;;;;1.10;1.00;;;;;;;;;;5017756;28;20206;-58
2023/10/27 01:42:39;;;;;;;1.05;0.95;;;;;;;;;;5017854;28;20209;-58
2023/10/27 01:45:07;;;;;;;1.00;1.00;;;;;;;;;;5017481;28;20522;-58
2023/10/27 01:47:34;;;;;;;1.33;1.10;;;;;;;;;;5017592;28;20216;-58
2023/10/27 01:50:02;;;;;;;1.08;0.98;;;;;;;;;;5017229;28;20237;-58
2023/10/27 01:52:29;;;;;;;1.20;0.98;;;;;;;;;;5017485;28;20230;-58
2023/10/27 01:54:57;;;;;;;1.17;1.10;;;;;;;;;;5017728;28;20297;-58
2023/10/27 01:57:26;;;;;;;0.90;0.90;;;;;;;;;;5017589;28;20206;-58
2023/10/27 01:59:53;;;;;;;1.15;1.10;;;;;;;;;;5017298;28;20206;-58
2023/10/27 02:02:21;;;;;;;1.20;1.10;;;;;;;;;;5017612;28;20586;-58
2023/10/27 02:04:48;;;;;;;1.08;1.00;;;;;;;;;;5017858;28;20487;-58
2023/10/27 02:07:16;;;;;;;0.93;0.93;;;;;;;;;;5017453;28;20206;-58
2023/10/27 02:09:43;;;;;;;1.10;1.00;;;;;;;;;;5017440;28;20475;-58
2023/10/27 02:12:11;;;;;;;1.30;1.00;;;;;;;;;;5017357;28;20238;-58
2023/10/27 02:14:40;;;;;;;0.77;0.77;;;;;;;;;;5017289;28;20206;-58
2023/10/27 02:17:07;;;;;;;1.02;0.93;;;;;;;;;;5017336;28;20594;-58
2023/10/27 02:19:35;;;;;;;1.10;1.00;;;;;;;;;;5016700;28;20484;-58
2023/10/27 02:22:02;;;;;;;0.80;0.80;;;;;;;;;;5017424;28;20210;-58
2023/10/27 02:24:29;;;;;;;0.90;0.90;;;;;;;;;;5017252;28;20198;-58
2023/10/27 02:26:58;;;;;;;0.90;0.90;;;;;;;;;;5016169;28;20225;-58
2023/10/27 02:29:25;;;;;;;1.00;0.90;;;;;;;;;;5017059;28;20289;-58
2023/10/27 02:31:54;;;;;;;1.17;1.08;;;;;;;;;;5016915;28;20244;-58
2023/10/27 02:34:21;;;;;;;0.90;0.85;;;;;;;;;;5016780;28;20214;-58
2023/10/27 02:36:49;;;;;;;1.77;1.05;;;;;;;;;;5016555;28;20216;-58
2023/10/27 02:39:16;;;;;;;1.02;0.93;;;;;;;;;;5017289;28;20202;-58
2023/10/27 02:41:43;;;;;;;0.80;0.80;;;;;;;;;;5017192;28;20494;-58
2023/10/27 02:44:11;;;;;;;0.90;0.90;;;;;;;;;;5016995;28;20218;-58
2023/10/27 02:46:38;;;;;;;0.90;0.90;;;;;;;;;;5016955;28;20206;-58
2023/10/27 02:49:07;;;;;;;1.13;0.80;;;;;;;;;;5020941;28;20570;-58
2023/10/27 02:51:34;;;;;;;1.15;1.05;;;;;;;;;;5020495;28;20349;-58
2023/10/27 02:54:03;;;;;;;0.85;0.85;;;;;;;;;;5021078;28;20222;-58
2023/10/27 02:56:31;;;;;;;0.98;0.88;;;;;;;;;;5020783;28;20272;-58
2023/10/27 02:58:58;;;;;;;1.17;1.10;;;;;;;;;;5020011;28;20202;-58
2023/10/27 03:01:25;;;;;;;0.90;0.82;;;;;;;;;;5020657;28;20213;-58
2023/10/27 03:03:53;;;;;;;2.00;1.30;;;;;;;;;;5020421;28;20236;-58
2023/10/27 03:06:22;;;;;;;1.15;1.05;;;;;;;;;;5020575;28;20206;-58
2023/10/27 03:08:50;;;;;;;1.20;1.10;;;;;;;;;;5020439;28;20514;-58
2023/10/27 03:11:17;;;;;;;1.23;1.13;;;;;;;;;;5020265;28;20229;-58
2023/10/27 03:13:45;;;;;;;1.23;1.00;;;;;;;;;;5019544;28;20207;-58
2023/10/27 03:16:16;;;;;;;1.30;1.20;;;;;;;;;;5020478;28;20198;-58
2023/10/27 03:18:43;;;;;;;0.90;0.90;;;;;;;;;;5019508;28;20271;-58
2023/10/27 03:21:11;;;;;;;1.30;1.20;;;;;;;;;;5019216;28;20214;-58
2023/10/27 03:23:39;;;;;;;1.15;1.05;;;;;;;;;;5019641;28;20206;-58
2023/10/27 03:26:07;;;;;;;1.20;1.10;;;;;;;;;;5020182;28;20221;-58
2023/10/27 03:28:34;;;;;;;1.30;1.20;;;;;;;;;;5019841;28;20206;-58
2023/10/27 03:31:02;;;;;;;1.27;1.17;;;;;;;;;;5019945;28;20217;-58
2023/10/27 03:33:29;;;;;;;1.40;1.20;;;;;;;;;;5019099;28;20329;-58
2023/10/27 03:35:57;;;;;;;1.10;1.00;;;;;;;;;;5019181;28;20237;-58
2023/10/27 03:38:24;;;;;;;1.25;1.15;;;;;;;;;;5019396;28;20206;-58
2023/10/27 03:40:54;;;;;;;0.80;0.80;;;;;;;;;;5019262;28;20216;-58
2023/10/27 03:43:21;;;;;;;1.20;1.08;;;;;;;;;;5019386;28;20289;-58
2023/10/27 03:45:49;;;;;;;1.05;1.05;;;;;;;;;;5019198;28;20491;-58
2023/10/27 03:48:16;;;;;;;1.30;1.20;;;;;;;;;;5019096;28;20606;-58
2023/10/27 03:50:44;;;;;;;1.50;1.30;;;;;;;;;;5019238;28;20261;-58
2023/10/27 03:53:11;;;;;;;1.20;1.10;;;;;;;;;;5019286;28;20501;-58
2023/10/27 03:55:38;;;;;;;2.20;1.15;;;;;;;;;;5019441;28;20513;-58
2023/10/27 03:58:17;;;;;;;1.85;1.08;;;;;;;;;;5018773;28;20210;-58
2023/10/27 04:00:44;;;;;;;1.33;1.20;;;;;;;;;;5018128;28;20586;-58
2023/10/27 04:03:12;;;;;;;1.85;1.38;;;;;;;;;;5018709;28;20210;-58
2023/10/27 04:05:39;;;;;;;1.30;1.17;;;;;;;;;;5018968;28;20206;-58
2023/10/27 04:08:07;;;;;;;1.48;1.30;;;;;;;;;;5018583;28;20206;-58
2023/10/27 04:10:34;;;;;;;1.55;1.40;;;;;;;;;;5018557;28;20210;-58
2023/10/27 04:13:02;;;;;;;1.40;1.10;;;;;;;;;;5018856;28;20504;-58
2023/10/27 04:15:31;;;;;;;1.27;1.17;;;;;;;;;;5018810;28;20216;-58
2023/10/27 04:17:58;;;;;;;1.50;1.17;;;;;;;;;;5019023;28;20289;-58
2023/10/27 04:20:26;;;;;;;1.27;1.10;;;;;;;;;;5018722;28;20206;-58
2023/10/27 04:22:53;;;;;;;1.73;1.40;;;;;;;;;;5018164;28;20199;-58
2023/10/27 04:25:23;;;;;;;1.48;1.38;;;;;;;;;;5018110;28;20570;-58
2023/10/27 04:27:51;;;;;;;1.58;1.30;;;;;;;;;;5018021;28;20202;-58
2023/10/27 04:30:19;;;;;;;1.83;1.33;;;;;;;;;;5018277;28;20202;-58
2023/10/27 04:32:49;;;;;;;1.25;1.10;;;;;;;;;;5018052;28;20273;-58
2023/10/27 04:35:17;;;;;;;1.38;1.20;;;;;;;;;;5017856;28;20606;-58
2023/10/27 04:37:44;;;;;;;1.42;1.00;;;;;;;;;;5018365;28;20681;-58
2023/10/27 04:40:12;;;;;;;1.25;1.15;;;;;;;;;;5017423;28;20206;-58
2023/10/27 04:42:40;;;;;;;1.40;1.10;;;;;;;;;;5017598;28;20229;-58
2023/10/27 04:45:07;;;;;;;1.67;1.30;;;;;;;;;;5017278;28;20492;-58
2023/10/27 04:47:35;;;;;;;1.25;1.15;;;;;;;;;;5017228;28;20591;-58
2023/10/27 04:50:04;;;;;;;1.58;1.30;;;;;;;;;;5017457;28;20241;-58
2023/10/27 04:52:33;;;;;;;1.63;0.98;;;;;;;;;;5016923;28;20222;-58
2023/10/27 04:55:00;;;;;;;2.13;1.30;;;;;;;;;;5017012;28;20746;-58
2023/10/27 04:57:28;;;;;;;1.48;1.10;;;;;;;;;;5016396;28;20277;-58
2023/10/27 04:59:56;;;;;;;1.52;1.10;;;;;;;;;;5016825;28;20206;-58
2023/10/27 05:02:23;;;;;;;1.50;1.10;;;;;;;;;;5015811;28;20210;-58
2023/10/27 05:04:50;;;;;;;1.20;1.10;;;;;;;;;;5016111;28;20206;-58
2023/10/27 05:07:20;;;;;;;1.10;1.00;;;;;;;;;;5015390;28;20206;-58
2023/10/27 05:09:47;;;;;;;1.20;1.08;;;;;;;;;;5015841;28;20586;-58
2023/10/27 05:12:15;;;;;;;1.10;1.00;;;;;;;;;;5015343;28;20245;-58
2023/10/27 05:14:42;;;;;;;1.00;0.90;;;;;;;;;;5014887;28;20206;-58
2023/10/27 05:17:09;;;;;;;1.10;1.00;;;;;;;;;;5015216;28;20235;-58
2023/10/27 05:19:37;;;;;;;1.30;1.20;;;;;;;;;;5014586;28;20206;-58
2023/10/27 05:22:05;;;;;;;1.17;1.02;;;;;;;;;;5015016;28;20198;-58
2023/10/27 05:24:34;;;;;;;1.55;1.30;;;;;;;;;;5015589;28;20273;-58
2023/10/27 05:27:01;;;;;;;2.25;1.10;;;;;;;;;;5016164;28;20198;-58
2023/10/27 05:29:29;;;;;;;1.25;1.15;;;;;;;;;;5014906;28;20300;-58
2023/10/27 05:31:56;;;;;;;1.10;1.00;;;;;;;;;;5015448;28;20614;-58
2023/10/27 05:34:24;;;;;;;1.48;1.20;;;;;;;;;;5015889;28;20206;-58
2023/10/27 05:36:51;;;;;;;1.90;1.10;;;;;;;;;;5014077;28;20198;-58
2023/10/27 05:39:20;;;;;;;1.65;1.55;;;;;;;;;;5014701;28;20730;-58
2023/10/27 05:41:49;;;;;;;2.72;1.10;;;;;;;;;;5014233;28;20545;-58
2023/10/27 05:44:16;;;;;;;1.52;1.10;;;;;;;;;;5013795;28;20687;-58
2023/10/27 05:46:44;;;;;;;1.25;1.15;;;;;;;;;;5014286;28;20490;-58
2023/10/27 05:49:12;;;;;;;1.30;1.20;;;;;;;;;;5015242;28;20206;-58
2023/10/27 05:51:40;;;;;;;3.03;1.20;;;;;;;;;;5014146;28;20244;-58
2023/10/27 05:54:07;;;;;;;1.98;1.00;;;;;;;;;;5014512;28;20225;-58
2023/10/27 05:56:34;;;;;;;1.73;1.17;;;;;;;;;;5014644;28;20221;-58
2023/10/27 05:59:04;;;;;;;2.28;1.20;;;;;;;;;;5013935;28;20206;-58
2023/10/27 06:01:33;;;;;;;1.63;1.48;;;;;;;;;;5014536;28;20590;-58
2023/10/27 06:04:00;;;;;;;1.20;1.10;;;;;;;;;;5014719;28;20693;-58
2023/10/27 06:06:28;;;;;;;1.58;1.20;;;;;;;;;;5014622;28;20206;-58
2023/10/27 06:08:55;;;;;;;1.40;1.17;;;;;;;;;;5014172;28;20210;-58
2023/10/27 06:11:23;;;;;;;2.33;1.10;;;;;;;;;;5014729;28;20207;-58
2023/10/27 06:13:50;;;;;;;1.10;1.00;;;;;;;;;;5014807;28;20316;-58
2023/10/27 06:16:19;;;;;;;2.03;1.27;;;;;;;;;;5015144;28;20206;-58
2023/10/27 06:18:47;;;;;;;1.45;1.23;;;;;;;;;;5015660;28;20206;-58
2023/10/27 06:21:14;;;;;;;1.48;1.15;;;;;;;;;;5014993;28;20496;-58
2023/10/27 06:23:45;;;;;;;2.42;1.08;;;;;;;;;;5019231;28;20583;-58
2023/10/27 06:26:12;;;;;;;3.67;1.20;;;;;;;;;;5018165;28;20214;-58
2023/10/27 06:28:40;;;;;;;2.15;1.10;;;;;;;;;;5018771;28;20498;-58
2023/10/27 06:31:09;;;;;;;1.58;1.10;;;;;;;;;;5019111;28;20217;-58
2023/10/27 06:33:45;;;;;;;1.38;1.10;;;;;;;;;;5018535;28;20226;-58
2023/10/27 06:36:14;;;;;;;1.35;1.20;;;;;;;;;;5018807;28;20233;-58
2023/10/27 06:38:44;;;;;;;1.40;1.20;;;;;;;;;;5018213;28;20206;-58
2023/10/27 06:41:13;;;;;;;1.70;1.00;;;;;;;;;;5018218;28;20296;-58
2023/10/27 06:43:41;;;;;;;1.50;1.00;;;;;;;;;;5018704;28;20210;-58
2023/10/27 06:46:09;;;;;;;1.98;1.00;;;;;;;;;;5018281;28;20638;-57
2023/10/27 06:48:39;;;;;;;1.52;1.20;;;;;;;;;;5019910;28;20826;-57
2023/10/27 06:51:16;;;;;;;1.38;1.17;;;;;;;;;;5019468;28;20325;-57
2023/10/27 06:53:44;;;;;;;1.00;0.88;;;;;;;;;;5018000;28;20258;-57
2023/10/27 06:56:12;;;;;;;2.17;1.30;;;;;;;;;;5018934;28;20202;-57
2023/10/27 06:58:40;;;;;;;1.08;0.98;;;;;;;;;;5019006;28;20206;-57
2023/10/27 07:01:09;;;;;;;1.13;0.93;;;;;;;;;;5017997;28;20285;-57
2023/10/27 07:03:40;;;;;;;1.30;1.15;;;;;;;;;;5018330;28;20306;-57
2023/10/27 07:06:10;;;;;;;2.28;1.10;;;;;;;;;;5018684;28;20710;-57
2023/10/27 07:08:40;;;;;;;1.42;1.08;;;;;;;;;;5018902;28;20206;-57
2023/10/27 07:11:10;;;;;;;1.75;1.10;;;;;;;;;;5019166;28;20301;-57
2023/10/27 07:13:41;;;;;;;1.52;1.23;;;;;;;;;;5033274;28;20556;-57
2023/10/27 07:16:12;;;;;;;1.20;1.10;;;;;;;;;;5038200;28;20205;-57
2023/10/27 07:18:40;;;;;;;1.80;0.95;;;;;;;;;;5037907;28;20305;-57
2023/10/27 07:21:12;;;;;;;1.00;1.00;;;;;;;;;;5037546;28;20208;-57
2023/10/27 07:23:43;;;;;;;1.50;0.90;;;;;;;;;;5038732;28;20211;-57
2023/10/27 07:26:18;;;;;;;1.52;1.00;;;;;;;;;;5038306;28;20210;-57
2023/10/27 07:28:47;;;;;;;2.03;0.88;;;;;;;;;;5037586;28;20202;-57
2023/10/27 07:31:16;;;;;;;0.90;0.90;;;;;;;;;;5037704;28;20721;-57
2023/10/27 07:33:44;;;;;;;1.52;1.20;;;;;;;;;;5037954;28;20557;-57
2023/10/27 07:36:13;;;;;;;1.90;1.27;;;;;;;;;;5037999;28;20272;-57
2023/10/27 07:38:43;;;;;;;1.67;1.15;;;;;;;;;;5038082;28;20206;-57
2023/10/27 07:41:12;;;;;;;0.88;0.85;;;;;;;;;;5037725;28;20232;-57
2023/10/27 07:43:41;;;;;;;1.10;1.00;;;;;;;;;;5037902;28;20202;-57
2023/10/27 07:46:10;;;;;;;1.80;1.10;;;;;;;;;;5037324;28;20273;-57
2023/10/27 07:48:39;;;;;;;1.23;0.70;;;;;;;;;;5037816;28;20569;-57
2023/10/27 07:51:07;;;;;;;0.80;0.80;;;;;;;;;;5037590;28;20233;-57
2023/10/27 07:53:37;;;;;;;1.10;1.00;;;;;;;;;;5037780;28;20221;-57
2023/10/27 07:56:08;;;;;;;0.80;0.80;;;;;;;;;;5037622;28;20212;-57
2023/10/27 07:58:38;;;;;;;0.98;0.88;;;;;;;;;;5037112;28;20205;-57
2023/10/27 08:01:06;;;;;;;0.98;0.80;;;;;;;;;;5035914;28;20202;-57
2023/10/27 08:03:35;;;;;;;1.00;0.90;;;;;;;;;;5037599;28;20200;-57
2023/10/27 08:06:03;;;;;;;0.82;0.82;;;;;;;;;;5037260;28;20209;-57
2023/10/27 08:08:32;;;;;;;1.48;1.20;;;;;;;;;;5036137;28;20210;-57
2023/10/27 08:11:00;;;;;;;1.00;0.90;;;;;;;;;;5035818;28;20201;-57
2023/10/27 08:13:37;;;;;;;0.95;0.80;;;;;;;;;;5035884;28;20640;-57
2023/10/27 08:16:05;;;;;;;0.80;0.80;;;;;;;;;;5036537;28;20574;-57
2023/10/27 08:18:36;;;;;;;0.63;0.63;;;;;;;;;;5037434;28;20462;-57
2023/10/27 08:21:06;;;;;;;1.42;0.95;;;;;;;;;;5036863;28;20209;-57
2023/10/27 08:23:34;;;;;;;0.80;0.75;;;;;;;;;;5036314;28;20193;-57
2023/10/27 08:26:05;;;;;;;0.80;0.80;;;;;;;;;;5037064;28;20358;-57
2023/10/27 08:28:36;;;;;;;0.90;0.70;;;;;;;;;;5036988;28;20605;-57
2023/10/27 08:31:05;;;;;;;0.90;0.70;;;;;;;;;;5035546;28;20237;-57
2023/10/27 08:33:33;;;;;;;0.85;0.70;;;;;;;;;;5036134;28;20225;-57
2023/10/27 08:36:05;;;;;;;0.73;0.60;;;;;;;;;;5036404;28;20256;-57
2023/10/27 08:38:34;;;;;;;0.80;0.80;;;;;;;;;;5036356;28;20216;-57
2023/10/27 08:41:04;;;;;;;0.55;0.55;;;;;;;;;;5036411;28;20787;-58
2023/10/27 08:43:41;;;;;;;0.57;0.57;;;;;;;;;;5037324;28;20313;-58
2023/10/27 08:46:13;;;;;;;0.80;0.60;;;;;;;;;;5036178;28;20745;-58
2023/10/27 08:48:43;;;;;;;1.58;0.80;;;;;;;;;;5036445;28;20235;-58
2023/10/27 08:51:13;;;;;;;0.85;0.73;;;;;;;;;;5035684;28;20579;-58
2023/10/27 08:53:42;;;;;;;0.70;0.70;;;;;;;;;;5036109;28;20319;-58
2023/10/27 08:56:13;;;;;;;1.13;0.73;;;;;;;;;;5035086;28;20210;-58
2023/10/27 08:58:50;;;;;;;0.73;0.70;;;;;;;;;;5036488;28;20212;-58
2023/10/27 09:01:20;;;;;;;0.70;0.70;;;;;;;;;;5035855;28;20287;-58
2023/10/27 09:04:06;;;;;;;1.25;0.70;;;;;;;;;;5035448;28;20197;-58
2023/10/27 09:06:35;;;;;;;0.82;0.80;;;;;;;;;;5035859;28;20213;-58
2023/10/27 09:09:05;;;;;;;0.75;0.75;;;;;;;;;;5035348;28;20198;-58
2023/10/27 09:11:42;;;;;;;1.35;0.65;;;;;;;;;;5034125;28;20248;-58
2023/10/27 09:14:33;;;;;;;0.93;0.68;;;;;;;;;;5035178;28;20236;-58
2023/10/27 09:17:08;;;;;;;1.00;0.80;;;;;;;;;;5036221;28;20616;-58
2023/10/27 09:19:39;;;;;;;0.70;0.70;;;;;;;;;;5035296;28;20201;-58
2023/10/27 09:22:18;;;;;;;0.80;0.80;;;;;;;;;;5035275;28;20271;-58
2023/10/27 09:24:52;;;;;;;0.85;0.80;;;;;;;;;;5035774;28;20292;-58
2023/10/27 09:27:27;;;;;;;1.13;0.70;;;;;;;;;;5035615;28;20586;-58
2023/10/27 09:29:59;;;;;;;1.23;0.80;;;;;;;;;;5035692;28;20223;-58
2023/10/27 09:32:29;;;;;;;0.60;0.60;;;;;;;;;;5034857;28;20271;-58
2023/10/27 09:35:23;;;;;;;0.82;0.73;;;;;;;;;;5035020;28;20239;-58
2023/10/27 09:37:55;;;;;;;0.95;0.80;;;;;;;;;;5034395;28;20300;-58
2023/10/27 09:40:38;;;;;;;0.88;0.75;;;;;;;;;;5034885;28;20197;-58
2023/10/27 09:43:08;;;;;;;0.90;0.60;;;;;;;;;;5034856;28;20548;-58
2023/10/27 09:45:40;;;;;;;1.10;0.80;;;;;;;;;;5035368;28;20302;-58
2023/10/27 09:48:11;;;;;;;1.08;0.68;;;;;;;;;;5034348;28;20272;-58
2023/10/27 09:50:41;;;;;;;0.80;0.75;;;;;;;;;;5034550;28;20318;-58
2023/10/27 09:53:11;;;;;;;0.82;0.77;;;;;;;;;;5035356;28;20210;-58
2023/10/27 09:55:40;;;;;;;2.35;0.95;;;;;;;;;;5034682;28;20260;-58
2023/10/27 09:58:08;;;;;;;1.00;0.80;;;;;;;;;;5034174;28;20208;-58
2023/10/27 10:00:41;;;;;;;0.85;0.70;;;;;;;;;;5035104;28;20311;-58
2023/10/27 10:03:09;;;;;;;0.88;0.85;;;;;;;;;;5034196;28;20221;-58
2023/10/27 10:05:58;;;;;;;0.95;0.80;;;;;;;;;;5035142;28;20292;-58
2023/10/27 10:08:28;;;;;;;1.27;0.80;;;;;;;;;;5026385;28;20308;-58
2023/10/27 10:11:12;;;;;;;0.80;0.80;;;;;;;;;;5034593;28;20209;-58
2023/10/27 10:13:41;;;;;;;0.80;0.80;;;;;;;;;;5033792;28;20772;-58
2023/10/27 10:16:12;;;;;;;0.75;0.70;;;;;;;;;;5034191;28;20217;-58
2023/10/27 10:18:55;;;;;;;1.02;0.70;;;;;;;;;;5033666;28;20600;-58
2023/10/27 10:21:38;;;;;;;1.42;0.80;;;;;;;;;;5033314;28;20826;-58
2023/10/27 10:24:10;;;;;;;1.00;0.82;;;;;;;;;;5034247;28;20198;-58
2023/10/27 10:27:01;;;;;;;1.50;0.70;;;;;;;;;;5034027;28;20684;-58
2023/10/27 10:29:34;;;;;;;0.95;0.70;;;;;;;;;;5033407;28;20213;-58
2023/10/27 10:32:20;;;;;;;0.90;0.80;;;;;;;;;;5034050;28;20202;-58
2023/10/27 10:35:03;;;;;;;1.20;0.60;;;;;;;;;;5033572;28;20217;-58
2023/10/27 10:37:32;;;;;;;1.65;0.90;;;;;;;;;;5033377;28;20631;-58
2023/10/27 10:40:19;;;;;;;0.80;0.80;;;;;;;;;;5033664;28;20202;-58
2023/10/27 10:43:05;;;;;;;2.65;1.00;;;;;;;;;;5033656;28;20316;-58
2023/10/27 10:45:33;;;;;;;2.00;1.00;;;;;;;;;;5034165;28;20642;-58
2023/10/27 10:48:00;;;;;;;1.50;0.80;;;;;;;;;;5034857;28;20385;-58
2023/10/27 10:50:30;;;;;;;0.90;0.80;;;;;;;;;;5033746;28;20341;-58
2023/10/27 10:53:15;;;;;;;1.10;0.98;;;;;;;;;;5033670;28;20201;-58
2023/10/27 10:55:45;;;;;;;0.95;0.85;;;;;;;;;;5033862;28;20229;-58
2023/10/27 10:58:13;;;;;;;1.23;0.85;;;;;;;;;;5033451;28;20245;-59
2023/10/27 11:00:44;;;;;;;1.77;0.82;;;;;;;;;;5034243;28;20263;-58
2023/10/27 11:03:15;;;;;;;1.30;0.77;;;;;;;;;;5033480;28;20206;-58
2023/10/27 11:05:43;;;;;;;1.23;0.85;;;;;;;;;;5033674;28;20588;-58
2023/10/27 11:08:12;;;;;;;1.85;0.80;;;;;;;;;;5033670;28;20202;-58
2023/10/27 11:10:40;;;;;;;1.33;0.85;;;;;;;;;;5036989;28;20209;-58
2023/10/27 11:13:08;;;;;;;1.10;0.90;;;;;;;;;;5037119;28;20216;-58
2023/10/27 11:15:43;;;;;;;1.60;1.00;;;;;;;;;;5036518;28;20222;-58
2023/10/27 11:18:14;;;;;;;1.88;1.10;;;;;;;;;;5037381;28;20212;-58
2023/10/27 11:20:43;;;;;;;1.10;0.70;;;;;;;;;;5037515;28;20233;-58
2023/10/27 11:23:16;;;;;;;0.80;0.80;;;;;;;;;;5036879;28;20213;-58
2023/10/27 11:25:45;;;;;;;0.80;0.80;;;;;;;;;;5036642;28;20585;-58
2023/10/27 11:28:24;;;;;;;1.20;0.82;;;;;;;;;;5016139;28;20533;-58
2023/10/27 11:31:05;;;;;;;2.22;1.05;;;;;;;;;;5016852;28;20206;-58
2023/10/27 11:33:33;;;;;;;2.42;0.88;;;;;;;;;;5015472;28;20521;-58
2023/10/27 11:36:06;;;;;;;1.27;1.00;;;;;;;;;;5015263;28;20226;-58
2023/10/27 11:38:39;;;;;;;2.70;1.30;;;;;;;;;;5017135;28;20269;-58
2023/10/27 11:41:12;;;;;;;1.38;1.00;;;;;;;;;;5015530;28;20268;-58
2023/10/27 11:43:43;;;;;;;1.42;0.90;;;;;;;;;;5016576;28;20249;-58
2023/10/27 11:46:12;;;;;;;2.38;1.30;;;;;;;;;;5016378;28;20224;-58
2023/10/27 11:48:40;;;;;;;3.13;1.42;;;;;;;;;;5017030;28;20312;-58
2023/10/27 11:51:10;;;;;;;2.95;1.52;;;;;;;;;;5015983;28;20242;-58
2023/10/27 11:53:47;;;;;;;1.92;1.33;;;;;;;;;;5017178;28;20612;-57
2023/10/27 11:56:17;;;;;;;4.00;1.60;;;;;;;;;;5015579;28;20276;-57
2023/10/27 11:58:47;;;;;;;2.70;1.33;;;;;;;;;;5017141;28;20313;-57
2023/10/27 12:01:17;;;;;;;4.53;1.70;;;;;;;;;;5015352;28;20218;-57
2023/10/27 12:03:50;;;;;;;3.85;1.95;;;;;;;;;;5020548;28;20206;-57
2023/10/27 12:06:21;;;;;;;3.42;1.65;;;;;;;;;;5035381;28;20232;-57
2023/10/27 12:08:52;;;;;;;2.10;1.40;;;;;;;;;;5036631;28;20218;-57
2023/10/27 12:11:21;;;;;;;3.78;1.73;;;;;;;;;;5035601;28;20228;-57
2023/10/27 12:13:50;;;;;;;3.22;1.80;;;;;;;;;;5035177;28;20229;-57
2023/10/27 12:16:20;;;;;;;4.63;1.92;;;;;;;;;;5035108;28;20225;-57
2023/10/27 12:18:49;;;;;;;4.75;1.90;;;;;;;;;;5035938;28;20300;-57
2023/10/27 12:21:20;;;;;;;3.75;1.75;;;;;;;;;;5035346;28;20214;-57
2023/10/27 12:23:50;;;;;;;4.72;2.00;;;;;;;;;;5036108;28;20339;-57
2023/10/27 12:26:28;;;;;;;3.90;1.92;;;;;;;;;;5036035;28;20202;-57
2023/10/27 12:28:56;;;;;;;4.38;2.10;;;;;;;;;;5035886;28;20208;-57
2023/10/27 12:31:25;;;;;;;4.03;2.20;;;;;;;;;;5035052;28;20301;-57
2023/10/27 12:33:54;;;;;;;5.63;2.28;;;;;;;;;;5035321;28;20206;-57
2023/10/27 12:36:24;;;;;;;3.88;2.03;;;;;;;;;;5036235;28;20225;-57
2023/10/27 12:38:53;;;;;;;5.32;2.42;;;;;;;;;;5017585;28;20347;-57
2023/10/27 12:41:23;;;;;;;4.50;2.28;;;;;;;;;;5035038;28;20268;-57
2023/10/27 12:43:53;;;;;;;4.68;2.38;;;;;;;;;;5035975;28;20668;-57
2023/10/27 12:46:22;;;;;;;4.13;2.10;;;;;;;;;;5035012;28;20216;-57
2023/10/27 12:48:51;;;;;;;6.35;2.40;;;;;;;;;;5035397;28;20209;-57
2023/10/27 12:51:19;;;;;;;6.00;2.60;;;;;;;;;;5035768;28;20233;-57
2023/10/27 12:53:48;;;;;;;5.93;2.38;;;;;;;;;;5035655;28;20659;-57
2023/10/27 12:56:16;;;;;;;5.28;2.40;;;;;;;;;;5035704;28;20225;-57
2023/10/27 12:58:46;;;;;;;4.07;2.40;;;;;;;;;;5035718;28;20729;-57
2023/10/27 13:01:22;;;;;;;4.75;2.45;;;;;;;;;;5035419;28;20255;-57
2023/10/27 13:03:50;;;;;;;3.75;2.20;;;;;;;;;;5035784;28;20299;-57
2023/10/27 13:06:21;;;;;;;3.88;2.08;;;;;;;;;;5034515;28;20256;-57
2023/10/27 13:08:51;;;;;;;4.72;2.17;;;;;;;;;;5034293;28;20668;-57
2023/10/27 13:11:21;;;;;;;5.10;2.40;;;;;;;;;;5034354;28;20245;-57
2023/10/27 13:13:52;;;;;;;3.45;2.08;;;;;;;;;;5034491;28;20300;-57
2023/10/27 13:16:22;;;;;;;3.80;2.50;;;;;;;;;;5035194;28;20221;-57
2023/10/27 13:18:54;;;;;;;5.35;2.70;;;;;;;;;;5035449;28;20300;-57
2023/10/27 13:21:22;;;;;;;4.40;2.22;;;;;;;;;;5034636;28;20212;-57
2023/10/27 13:23:54;;;;;;;4.88;2.60;;;;;;;;;;5033303;28;20240;-57
2023/10/27 13:26:22;;;;;;;4.32;2.10;;;;;;;;;;5035634;28;20206;-57
2023/10/27 13:28:52;;;;;;;3.80;2.40;;;;;;;;;;5034600;28;20224;-57
2023/10/27 13:31:22;;;;;;;4.20;2.33;;;;;;;;;;5034281;28;20212;-57
2023/10/27 13:33:50;;;;;;;4.03;2.25;;;;;;;;;;5034657;28;20564;-57
2023/10/27 13:36:17;;;;;;;3.38;2.00;;;;;;;;;;5034932;28;20226;-57
2023/10/27 13:38:45;;;;;;;3.80;2.35;;;;;;;;;;5034399;28;20232;-57
2023/10/27 13:41:15;;;;;;;4.65;2.25;;;;;;;;;;5035053;28;20217;-57
2023/10/27 13:43:42;;;;;;;3.83;1.92;;;;;;;;;;5034849;28;20236;-57
2023/10/27 13:46:14;;;;;;;3.97;2.40;;;;;;;;;;5034411;28;20216;-57
2023/10/27 13:48:42;;;;;;;3.22;2.13;;;;;;;;;;5035748;28;20571;-57
2023/10/27 13:51:09;;;;;;;2.78;2.00;;;;;;;;;;5034927;28;20252;-57
2023/10/27 13:53:37;;;;;;;3.50;1.98;;;;;;;;;;5035128;28;20594;-57
2023/10/27 13:56:06;;;;;;;4.22;2.28;;;;;;;;;;5034874;28;20260;-57
2023/10/27 13:58:33;;;;;;;3.72;1.77;;;;;;;;;;5034362;28;20206;-57
2023/10/27 14:01:02;;;;;;;3.75;2.20;;;;;;;;;;5034796;28;20531;-57
2023/10/27 14:03:30;;;;;;;2.33;1.75;;;;;;;;;;5033183;28;20216;-57
2023/10/27 14:06:00;;;;;;;3.10;2.25;;;;;;;;;;5033729;28;20201;-57
2023/10/27 14:08:27;;;;;;;3.78;2.22;;;;;;;;;;5033835;28;20240;-57
2023/10/27 14:10:54;;;;;;;3.05;2.00;;;;;;;;;;5034777;28;20217;-57
2023/10/27 14:13:22;;;;;;;3.47;1.95;;;;;;;;;;5034784;28;20259;-58
2023/10/27 14:15:49;;;;;;;3.40;2.00;;;;;;;;;;5034615;28;20229;-58
2023/10/27 14:18:17;;;;;;;3.85;2.10;;;;;;;;;;5034854;28;20289;-58
2023/10/27 14:20:47;;;;;;;2.80;1.80;;;;;;;;;;5034423;28;20487;-58
2023/10/27 14:23:16;;;;;;;3.15;1.95;;;;;;;;;;5034278;28;20578;-58
2023/10/27 14:25:43;;;;;;;3.00;1.95;;;;;;;;;;5034673;28;20194;-57
2023/10/27 14:28:10;;;;;;;3.92;1.95;;;;;;;;;;5035176;28;20573;-57
2023/10/27 14:30:38;;;;;;;3.33;1.90;;;;;;;;;;5034745;28;20209;-57
2023/10/27 14:33:05;;;;;;;3.78;1.92;;;;;;;;;;5034940;28;20205;-58
2023/10/27 14:35:33;;;;;;;3.20;2.08;;;;;;;;;;5029059;28;20318;-58
2023/10/27 14:38:02;;;;;;;2.83;1.60;;;;;;;;;;5015202;28;20205;-58
2023/10/27 14:40:29;;;;;;;2.58;1.80;;;;;;;;;;5014809;28;20202;-58
2023/10/27 14:42:58;;;;;;;2.38;1.50;;;;;;;;;;5015048;28;20594;-58
2023/10/27 14:45:26;;;;;;;3.00;1.90;;;;;;;;;;5018842;28;20203;-58
2023/10/27 14:47:54;;;;;;;2.85;1.80;;;;;;;;;;5018337;28;20291;-58
2023/10/27 14:50:22;;;;;;;2.78;1.80;;;;;;;;;;5017937;28;20248;-58
2023/10/27 14:52:52;;;;;;;2.67;1.58;;;;;;;;;;5018454;28;20234;-58
2023/10/27 14:55:21;;;;;;;2.33;1.55;;;;;;;;;;5018562;28;20269;-58
2023/10/27 14:57:49;;;;;;;2.47;1.67;;;;;;;;;;5018891;28;20207;-58